createdAt,value
2022-12-03T00:03:18.705Z,1026.78
2022-12-03T00:08:20.025Z,1026.733
2022-12-03T00:13:18.610Z,1026.689
2022-12-03T00:18:18.582Z,1026.671
2022-12-03T00:23:20.790Z,1026.634
2022-12-03T00:28:18.449Z,1026.618
2022-12-03T00:33:18.951Z,1026.632
2022-12-03T00:38:18.735Z,1026.601
2022-12-03T00:43:19.539Z,1026.521
2022-12-03T00:48:19.677Z,1026.487
2022-12-03T00:53:20.942Z,1026.445
2022-12-03T00:58:18.466Z,1026.408
2022-12-03T01:03:18.696Z,1026.426
2022-12-03T01:08:18.561Z,1026.433
2022-12-03T01:13:18.579Z,1026.389
2022-12-03T01:18:20.317Z,1026.432
2022-12-03T01:23:18.505Z,1026.413
2022-12-03T01:28:18.499Z,1026.287
2022-12-03T01:33:18.582Z,1026.214
2022-12-03T01:38:18.560Z,1026.19
2022-12-03T01:43:18.558Z,1026.145
2022-12-03T01:48:19.309Z,1026.045
2022-12-03T01:53:20.076Z,1026.034
2022-12-03T01:58:19.113Z,1026.009
2022-12-03T02:03:20.849Z,1025.961
2022-12-03T02:08:35.176Z,1025.919
2022-12-03T02:13:18.587Z,1025.923
2022-12-03T02:18:18.645Z,1025.933
2022-12-03T02:23:26.003Z,1025.89
2022-12-03T02:28:18.573Z,1025.907
2022-12-03T02:33:18.440Z,1025.904
2022-12-03T02:38:19.309Z,1025.828
2022-12-03T02:43:19.031Z,1025.782
2022-12-03T02:48:20.136Z,1025.799
2022-12-03T02:53:21.759Z,1025.773
2022-12-03T02:58:18.954Z,1025.793
2022-12-03T03:03:20.308Z,1025.813
2022-12-03T03:08:19.011Z,1025.685
2022-12-03T03:13:19.580Z,1025.672
2022-12-03T03:18:19.144Z,1025.682
2022-12-03T03:23:22.630Z,1025.685
2022-12-03T03:28:18.705Z,1025.546
2022-12-03T03:33:19.322Z,1025.512
2022-12-03T03:38:18.798Z,1025.59
2022-12-03T03:43:18.556Z,1025.531
2022-12-03T03:48:19.408Z,1025.511
2022-12-03T03:53:20.807Z,1025.451
2022-12-03T03:58:18.631Z,1025.338
2022-12-03T04:03:18.621Z,1025.343
2022-12-03T04:08:18.381Z,1025.286
2022-12-03T04:13:18.584Z,1025.282
2022-12-03T04:18:29.819Z,1025.315
2022-12-03T04:23:18.558Z,1025.289
2022-12-03T04:28:30.047Z,1025.313
2022-12-03T04:33:29.956Z,1025.234
2022-12-03T04:38:19.655Z,1025.227
2022-12-03T04:43:18.491Z,1025.185
2022-12-03T04:48:18.493Z,1025.101
2022-12-03T04:53:18.623Z,1025.133
2022-12-03T04:58:18.345Z,1025.063
2022-12-03T05:03:18.399Z,1025.035
2022-12-03T05:08:19.415Z,1025.081
2022-12-03T05:13:18.419Z,1025.106
2022-12-03T05:18:18.357Z,1025.08
2022-12-03T05:23:18.480Z,1025.083
2022-12-03T05:28:18.515Z,1024.965
2022-12-03T05:33:18.361Z,1024.951
2022-12-03T05:38:18.450Z,1024.924
2022-12-03T05:43:18.334Z,1024.883
2022-12-03T05:48:19.015Z,1024.888
2022-12-03T05:53:19.108Z,1024.838
2022-12-03T05:58:19.507Z,1024.824
2022-12-03T06:03:18.594Z,1024.785
2022-12-03T06:08:18.399Z,1024.769
2022-12-03T06:13:20.925Z,1024.792
2022-12-03T06:18:21.472Z,1024.724
2022-12-03T06:23:18.477Z,1024.703
2022-12-03T06:28:21.156Z,1024.639
2022-12-03T06:33:22.346Z,1024.682
2022-12-03T06:38:19.581Z,1024.602
2022-12-03T06:43:19.137Z,1024.553
2022-12-03T06:48:18.466Z,1024.506
2022-12-03T06:53:18.493Z,1024.501
2022-12-03T06:58:27.526Z,1024.636
2022-12-03T07:03:18.378Z,1024.602
2022-12-03T07:08:20.321Z,1024.608
2022-12-03T07:13:18.344Z,1024.62
2022-12-03T07:18:18.353Z,1024.656
2022-12-03T07:23:18.610Z,1024.649
2022-12-03T07:28:18.566Z,1024.729
2022-12-03T07:33:18.595Z,1024.671
2022-12-03T07:38:18.309Z,1024.795
2022-12-03T07:43:19.417Z,1024.756
2022-12-03T07:48:18.459Z,1024.759
2022-12-03T07:53:18.350Z,1024.75
2022-12-03T07:58:18.320Z,1024.737
2022-12-03T08:03:21.008Z,1024.701
2022-12-03T08:08:18.606Z,1024.604
2022-12-03T08:13:19.772Z,1024.585
2022-12-03T08:18:20.899Z,1024.576
2022-12-03T08:23:20.228Z,1024.496
2022-12-03T08:28:22.770Z,1024.49
2022-12-03T08:33:24.310Z,1024.479
2022-12-03T08:38:18.497Z,1024.473
2022-12-03T08:43:22.671Z,1024.478
2022-12-03T08:48:26.047Z,1024.451
2022-12-03T08:53:24.924Z,1024.451
2022-12-03T08:58:25.473Z,1024.414
2022-12-03T09:03:20.590Z,1024.397
2022-12-03T09:08:18.459Z,1024.448
2022-12-03T09:13:18.960Z,1024.456
2022-12-03T09:18:18.328Z,1024.453
2022-12-03T09:23:18.963Z,1024.436
2022-12-03T09:28:18.340Z,1024.438
2022-12-03T09:33:18.550Z,1024.406
2022-12-03T09:38:18.412Z,1024.48
2022-12-03T09:43:18.306Z,1024.39
2022-12-03T09:48:18.631Z,1024.359
2022-12-03T09:53:20.637Z,1024.387
2022-12-03T09:58:20.123Z,1024.449
2022-12-03T10:03:19.498Z,1024.429
2022-12-03T10:08:21.624Z,1024.377
2022-12-03T10:13:25.789Z,1024.35
2022-12-03T10:18:20.384Z,1024.336
2022-12-03T10:23:27.925Z,1024.312
2022-12-03T10:28:28.204Z,1024.309
2022-12-03T10:33:19.411Z,1024.222
2022-12-03T10:38:26.316Z,1024.241
2022-12-03T10:43:24.900Z,1024.12
2022-12-03T10:48:19.492Z,1024.02
2022-12-03T10:53:18.487Z,1024.009
2022-12-03T10:58:23.055Z,1024.022
2022-12-03T11:03:22.019Z,1023.96
2022-12-03T11:08:26.521Z,1024.011
2022-12-03T11:13:29.571Z,1023.896
2022-12-03T11:18:28.244Z,1023.888
2022-12-03T11:23:18.257Z,1023.898
2022-12-03T11:28:29.717Z,1023.727
2022-12-03T11:33:28.684Z,1023.727
2022-12-03T11:38:32.220Z,1023.655
2022-12-03T11:43:18.453Z,1023.649
2022-12-03T11:48:18.963Z,1023.57
2022-12-03T11:53:24.102Z,1023.559
2022-12-03T11:58:22.372Z,1023.502
2022-12-03T12:03:27.312Z,1023.467
2022-12-03T12:08:21.966Z,1023.385
2022-12-03T12:13:29.603Z,1023.398
2022-12-03T12:18:29.590Z,1023.329
2022-12-03T12:23:29.238Z,1023.245
2022-12-03T12:28:20.493Z,1023.196
2022-12-03T12:33:22.766Z,1023.14
2022-12-03T12:38:21.303Z,1023.116
2022-12-03T12:43:23.974Z,1023.069
2022-12-03T12:48:24.778Z,1023.054
2022-12-03T12:53:24.136Z,1023.135
2022-12-03T12:58:20.119Z,1023.097
2022-12-03T13:03:20.557Z,1023.072
2022-12-03T13:08:24.340Z,1023.08
2022-12-03T13:13:26.568Z,1022.974
2022-12-03T13:18:38.596Z,1022.952
2022-12-03T13:23:26.824Z,1022.932
2022-12-03T13:28:18.235Z,1022.88
2022-12-03T13:33:26.059Z,1022.772
2022-12-03T13:38:19.982Z,1022.711
2022-12-03T13:43:18.982Z,1022.696
2022-12-03T13:48:24.172Z,1022.71
2022-12-03T13:53:24.066Z,1022.688
2022-12-03T13:58:18.131Z,1022.633
2022-12-03T14:03:18.971Z,1022.58
2022-12-03T14:08:19.568Z,1022.524
2022-12-03T14:13:18.365Z,1022.524
2022-12-03T14:18:18.321Z,1022.469
2022-12-03T14:23:18.323Z,1022.455
2022-12-03T14:28:18.227Z,1022.463
2022-12-03T14:33:18.554Z,1022.523
2022-12-03T14:38:18.506Z,1022.452
2022-12-03T14:43:21.080Z,1022.4
2022-12-03T14:48:18.394Z,1022.391
2022-12-03T14:53:21.503Z,1022.33
2022-12-03T14:58:20.659Z,1022.262
2022-12-03T15:03:20.053Z,1022.281
2022-12-03T15:08:19.884Z,1022.249
2022-12-03T15:13:19.837Z,1022.154
2022-12-03T15:18:19.174Z,1022.143
2022-12-03T15:23:19.372Z,1022.215
2022-12-03T15:28:22.419Z,1022.218
2022-12-03T15:33:19.489Z,1022.204
2022-12-03T15:38:19.085Z,1022.177
2022-12-03T15:43:18.584Z,1022.304
2022-12-03T15:48:18.726Z,1022.253
2022-12-03T15:53:23.315Z,1022.391
2022-12-03T15:58:18.511Z,1022.387
2022-12-03T16:03:18.352Z,1022.37
2022-12-03T16:08:19.647Z,1022.371
2022-12-03T16:13:18.222Z,1022.332
2022-12-03T16:18:18.635Z,1022.349
2022-12-03T16:23:19.067Z,1022.284
2022-12-03T16:28:20.387Z,1022.287
2022-12-03T16:33:22.509Z,1022.301
2022-12-03T16:38:18.303Z,1022.292
2022-12-03T16:43:18.515Z,1022.29
2022-12-03T16:48:19.652Z,1022.311
2022-12-03T16:53:18.480Z,1022.337
2022-12-03T16:58:18.533Z,1022.334
2022-12-03T17:03:18.341Z,1022.329
2022-12-03T17:08:18.877Z,1022.244
2022-12-03T17:13:18.937Z,1022.196
2022-12-03T17:18:18.169Z,1022.191
2022-12-03T17:23:18.307Z,1022.267
2022-12-03T17:28:18.149Z,1022.265
2022-12-03T17:33:18.141Z,1022.25
2022-12-03T17:38:18.208Z,1022.24
2022-12-03T17:43:18.160Z,1022.201
2022-12-03T17:48:18.454Z,1022.171
2022-12-03T17:53:18.228Z,1022.254
2022-12-03T17:58:18.107Z,1022.21
2022-12-03T18:03:18.768Z,1022.201
2022-12-03T18:08:19.918Z,1022.197
2022-12-03T18:13:18.795Z,1022.181
2022-12-03T18:18:18.862Z,1022.179
2022-12-03T18:23:19.308Z,1022.25
2022-12-03T18:28:19.206Z,1022.095
2022-12-03T18:33:21.349Z,1022.039
2022-12-03T18:38:21.152Z,1022.063
2022-12-03T18:43:20.423Z,1021.958
2022-12-03T18:48:19.774Z,1021.93
2022-12-03T18:53:19.686Z,1021.92
2022-12-03T18:58:19.070Z,1021.894
2022-12-03T19:03:21.117Z,1021.883
2022-12-03T19:08:20.431Z,1021.837
2022-12-03T19:13:20.956Z,1021.821
2022-12-03T19:18:18.295Z,1021.777
2022-12-03T19:23:18.307Z,1021.854
2022-12-03T19:28:18.116Z,1021.821
2022-12-03T19:33:18.487Z,1021.814
2022-12-03T19:38:18.319Z,1021.728
2022-12-03T19:43:18.215Z,1021.755
2022-12-03T19:48:18.127Z,1021.792
2022-12-03T19:53:18.519Z,1021.85
2022-12-03T19:58:18.150Z,1021.863
2022-12-03T20:03:21.260Z,1021.901
2022-12-03T20:08:18.213Z,1021.806
2022-12-03T20:13:18.217Z,1021.753
2022-12-03T20:18:18.153Z,1021.738
2022-12-03T20:23:18.204Z,1021.688
2022-12-03T20:28:18.703Z,1021.629
2022-12-03T20:33:18.014Z,1021.668
2022-12-03T20:38:18.065Z,1021.631
2022-12-03T20:43:18.193Z,1021.542
2022-12-03T20:48:18.022Z,1021.559
2022-12-03T20:53:24.820Z,1021.493
2022-12-03T20:58:17.998Z,1021.539
2022-12-03T21:03:18.089Z,1021.531
2022-12-03T21:08:33.028Z,1021.508
2022-12-03T21:13:26.587Z,1021.448
2022-12-03T21:18:19.052Z,1021.409
2022-12-03T21:23:18.350Z,1021.423
2022-12-03T21:28:19.315Z,1021.383
2022-12-03T21:33:18.097Z,1021.37
2022-12-03T21:38:18.171Z,1021.362
2022-12-03T21:43:18.207Z,1021.294
2022-12-03T21:48:19.083Z,1021.263
2022-12-03T21:53:18.379Z,1021.264
2022-12-03T21:58:18.173Z,1021.23
2022-12-03T22:03:18.191Z,1021.316
2022-12-03T22:08:18.299Z,1021.275
2022-12-03T22:13:18.210Z,1021.243
2022-12-03T22:18:18.282Z,1021.251
2022-12-03T22:23:18.065Z,1021.237
2022-12-03T22:28:18.105Z,1021.18
2022-12-03T22:33:18.108Z,1021.237
2022-12-03T22:38:18.009Z,1021.177
2022-12-03T22:43:18.198Z,1021.128
2022-12-03T22:48:18.301Z,1021.135
2022-12-03T22:53:18.312Z,1021.105
2022-12-03T22:58:18.153Z,1021.217
2022-12-03T23:03:18.164Z,1021.153
2022-12-03T23:08:19.282Z,1021.194
2022-12-03T23:13:18.401Z,1021.232
2022-12-03T23:18:18.161Z,1021.259
2022-12-03T23:23:18.225Z,1021.268
2022-12-03T23:28:18.199Z,1021.169
2022-12-03T23:33:18.410Z,1021.2
2022-12-03T23:38:18.311Z,1021.162
2022-12-03T23:43:18.047Z,1021.149
2022-12-03T23:48:18.007Z,1021.177
2022-12-03T23:53:18.101Z,1021.172
2022-12-03T23:58:18.016Z,1021.108
